Time;durP1;ratioP1;P1;durP2;ratioP2;P2;SDS_P1;SDS_P2;PMS_P1;PMS_P2;Temp;Humidity;BMP_temperature;BMP_pressure;BME280_temperature;BME280_humidity;BME280_pressure;Samples;Min_cycle;Max_cycle;Signal;HPM_P1;HPM_P2
2021/12/03 00:00:26;;;;;;;4.70;2.30;;;0.30;99.90;;;;;;10564937;28;20202;-77
2021/12/03 00:05:50;;;;;;;7.20;2.57;;;0.40;99.90;;;;;;10546431;28;20197;-79
2021/12/03 00:11:13;;;;;;;4.00;1.80;;;0.30;99.90;;;;;;10550507;28;20247;-79
2021/12/03 00:16:35;;;;;;;5.93;2.03;;;0.20;99.90;;;;;;10532237;28;20202;-78
2021/12/03 00:21:57;;;;;;;2.00;1.50;;;0.10;99.90;;;;;;10563900;28;20194;-77
2021/12/03 00:27:19;;;;;;;9.37;2.57;;;0.10;99.90;;;;;;10564059;28;20206;-80
2021/12/03 00:32:42;;;;;;;6.10;2.23;;;0.10;99.90;;;;;;10530823;28;20403;-78
2021/12/03 00:38:04;;;;;;;3.37;2.27;;;0.10;99.90;;;;;;10544122;28;20223;-78
2021/12/03 00:43:26;;;;;;;6.57;2.20;;;0.10;99.90;;;;;;10548150;28;20238;-79
2021/12/03 00:48:51;;;;;;;6.33;2.50;;;0.00;99.90;;;;;;10547490;28;20263;-79
2021/12/03 00:54:15;;;;;;;3.10;2.20;;;-0.10;99.90;;;;;;10562798;28;20394;-80
2021/12/03 00:59:38;;;;;;;4.43;2.63;;;-0.10;99.90;;;;;;10562841;28;20451;-80
2021/12/03 01:05:00;;;;;;;3.80;2.30;;;-0.20;99.90;;;;;;10561573;28;20243;-79
2021/12/03 01:10:23;;;;;;;5.60;2.60;;;-0.20;99.90;;;;;;10542888;28;20218;-79
2021/12/03 01:15:46;;;;;;;3.97;1.80;;;-0.20;99.90;;;;;;10562202;28;20193;-80
2021/12/03 01:21:09;;;;;;;8.13;2.47;;;-0.10;99.90;;;;;;10543672;28;20243;-78
2021/12/03 01:26:33;;;;;;;6.87;2.57;;;-0.20;99.90;;;;;;10561885;28;20267;-80
2021/12/03 01:31:56;;;;;;;3.97;2.20;;;-0.20;99.90;;;;;;10527251;28;20220;-79
2021/12/03 01:37:18;;;;;;;5.23;2.77;;;-0.20;99.90;;;;;;10546209;28;20304;-80
2021/12/03 01:42:44;;;;;;;5.27;2.80;;;-0.20;99.90;;;;;;10543480;28;20208;-80
2021/12/03 01:48:07;;;;;;;8.30;4.20;;;-0.20;99.90;;;;;;10543052;28;20208;-80
2021/12/03 01:53:32;;;;;;;10.53;3.87;;;-0.30;99.90;;;;;;10561361;28;20508;-80
2021/12/03 01:58:54;;;;;;;5.77;3.13;;;-0.30;99.90;;;;;;10515309;28;20553;-79
2021/12/03 02:04:17;;;;;;;5.77;3.37;;;-0.40;99.90;;;;;;10524433;28;20252;-77
2021/12/03 02:09:39;;;;;;;5.33;2.20;;;-0.40;99.90;;;;;;10534761;28;20218;-77
2021/12/03 02:15:02;;;;;;;2.63;1.80;;;-0.50;99.90;;;;;;10564559;28;20525;-78
2021/12/03 02:20:25;;;;;;;4.10;1.90;;;-0.50;99.90;;;;;;10553878;28;20200;-79
2021/12/03 02:25:49;;;;;;;3.20;1.80;;;-0.40;99.90;;;;;;10550640;28;20200;-77
2021/12/03 02:31:13;;;;;;;7.50;1.90;;;-0.40;99.90;;;;;;10536190;28;20445;-77
2021/12/03 02:36:35;;;;;;;2.80;2.13;;;-0.40;99.90;;;;;;10535771;28;20201;-76
2021/12/03 02:41:57;;;;;;;4.67;1.70;;;-0.40;99.90;;;;;;10535837;28;20208;-77
2021/12/03 02:47:19;;;;;;;3.47;1.90;;;-0.40;99.90;;;;;;10552556;28;20194;-77
2021/12/03 02:52:42;;;;;;;4.97;1.97;;;-0.50;99.90;;;;;;10552688;28;20222;-77
2021/12/03 02:58:04;;;;;;;4.77;2.13;;;-0.50;99.90;;;;;;10552529;28;20540;-78
2021/12/03 03:03:26;;;;;;;5.63;2.70;;;-0.50;99.90;;;;;;10551174;28;20558;-77
2021/12/03 03:08:49;;;;;;;6.33;3.27;;;-0.50;99.90;;;;;;10552196;28;20286;-77
2021/12/03 03:14:11;;;;;;;4.87;3.63;;;-0.50;99.90;;;;;;10566700;28;20208;-79
2021/12/03 03:19:33;;;;;;;6.77;3.40;;;-0.50;99.90;;;;;;10551584;28;20238;-79
2021/12/03 03:25:00;;;;;;;8.00;3.23;;;-0.40;99.90;;;;;;10550117;28;20503;-80
2021/12/03 03:30:23;;;;;;;6.27;3.40;;;-0.40;99.90;;;;;;10547882;28;20299;-79
2021/12/03 03:35:45;;;;;;;4.73;2.50;;;-0.20;99.90;;;;;;10531566;28;20374;-79
2021/12/03 03:41:07;;;;;;;9.03;3.70;;;-0.20;99.90;;;;;;10550558;28;20611;-79
2021/12/03 03:46:30;;;;;;;7.87;3.93;;;-0.20;99.90;;;;;;10519405;28;20197;-79
2021/12/03 03:51:52;;;;;;;9.97;4.33;;;-0.20;99.90;;;;;;10546375;28;20243;-79
2021/12/03 03:57:14;;;;;;;4.97;3.30;;;-0.30;99.90;;;;;;10564907;28;20194;-78
2021/12/03 04:02:36;;;;;;;4.90;2.60;;;-0.20;99.90;;;;;;10546205;28;20201;-77
2021/12/03 04:07:58;;;;;;;7.73;3.43;;;-0.20;99.90;;;;;;10535833;28;20209;-79
2021/12/03 04:13:21;;;;;;;4.57;3.47;;;-0.10;99.90;;;;;;10546238;28;20229;-79
2021/12/03 04:18:43;;;;;;;7.33;3.33;;;0.00;99.90;;;;;;10532281;28;20203;-79
2021/12/03 04:24:06;;;;;;;5.77;3.13;;;-0.10;99.90;;;;;;10517325;28;20262;-80
2021/12/03 04:29:28;;;;;;;9.23;3.63;;;0.10;99.90;;;;;;10563585;28;20292;-78
2021/12/03 04:34:50;;;;;;;5.10;2.57;;;0.00;99.90;;;;;;10511865;28;20190;-78
2021/12/03 04:40:15;;;;;;;8.97;3.70;;;0.10;99.90;;;;;;10544696;28;20405;-80
2021/12/03 04:45:37;;;;;;;9.53;4.10;;;0.10;99.90;;;;;;10531087;28;20205;-77
2021/12/03 04:51:00;;;;;;;8.67;4.23;;;0.10;99.90;;;;;;10530784;28;20224;-80
2021/12/03 04:56:22;;;;;;;5.50;3.30;;;0.00;99.90;;;;;;10547557;28;20268;-80
2021/12/03 05:01:44;;;;;;;9.10;3.67;;;0.10;99.90;;;;;;10498540;28;20531;-80
2021/12/03 05:12:31;;;;;;;5.27;3.40;;;0.00;99.90;;;;;;10529869;28;20269;-80
2021/12/03 05:17:55;;;;;;;6.97;3.77;;;0.10;99.90;;;;;;10530094;28;20231;-78
2021/12/03 05:23:19;;;;;;;5.80;3.33;;;0.10;99.90;;;;;;10529966;28;20281;-78
2021/12/03 05:28:41;;;;;;;7.10;3.93;;;0.20;99.90;;;;;;10561677;28;20526;-79
2021/12/03 05:34:05;;;;;;;6.40;3.37;;;0.10;99.90;;;;;;10540325;28;20208;-79
2021/12/03 05:39:27;;;;;;;7.00;3.20;;;0.10;99.90;;;;;;10546004;28;20232;-80
2021/12/03 05:44:49;;;;;;;5.67;3.27;;;0.10;99.90;;;;;;10561315;28;20196;-79
2021/12/03 05:50:15;;;;;;;10.33;3.20;;;0.20;99.90;;;;;;10547477;28;20252;-78
2021/12/03 05:55:37;;;;;;;5.93;2.70;;;0.30;99.90;;;;;;10554849;28;20205;-77
2021/12/03 06:00:59;;;;;;;7.43;3.47;;;0.30;99.90;;;;;;10569148;28;20204;-79
2021/12/03 06:06:21;;;;;;;7.57;3.33;;;0.40;99.90;;;;;;10568115;28;20201;-77
2021/12/03 06:11:43;;;;;;;4.23;2.50;;;0.50;99.90;;;;;;10533048;28;20244;-79
2021/12/03 06:17:05;;;;;;;50.77;18.23;;;0.40;99.90;;;;;;10538713;28;20197;-80
2021/12/03 06:22:28;;;;;;;6.37;3.97;;;0.40;99.90;;;;;;10536359;28;20520;-79
2021/12/03 06:27:50;;;;;;;6.03;3.50;;;0.50;99.90;;;;;;10550343;28;20206;-79
2021/12/03 06:33:12;;;;;;;6.37;3.87;;;0.50;99.90;;;;;;10535879;28;20236;-80
2021/12/03 06:38:38;;;;;;;4.87;3.20;;;0.50;99.90;;;;;;10535585;28;20244;-80
2021/12/03 06:44:00;;;;;;;6.43;3.97;;;0.50;99.90;;;;;;10535131;28;20227;-79
2021/12/03 06:49:23;;;;;;;7.57;4.03;;;0.40;99.90;;;;;;10558901;28;20514;-79
2021/12/03 06:54:54;;;;;;;6.20;3.50;;;0.40;99.90;;;;;;10567222;28;20202;-80
2021/12/03 07:00:17;;;;;;;6.83;4.90;;;0.50;99.90;;;;;;10531963;28;20218;-79
2021/12/03 07:05:39;;;;;;;12.27;5.40;;;0.40;99.90;;;;;;10566400;28;20196;-80
2021/12/03 07:11:01;;;;;;;6.93;4.20;;;0.40;99.90;;;;;;10520735;28;20230;-80
2021/12/03 07:16:24;;;;;;;8.43;5.00;;;0.40;99.90;;;;;;10520114;28;20458;-80
2021/12/03 07:21:46;;;;;;;12.03;6.97;;;0.40;99.90;;;;;;10534152;28;20205;-80
2021/12/03 07:27:08;;;;;;;10.63;6.13;;;0.50;99.90;;;;;;10547356;28;20284;-79
2021/12/03 07:32:30;;;;;;;9.53;5.03;;;0.50;99.90;;;;;;10520151;28;20229;-79
2021/12/03 07:37:53;;;;;;;10.03;6.10;;;0.50;99.90;;;;;;10550930;28;20232;-79
2021/12/03 07:43:19;;;;;;;21.73;11.63;;;0.60;99.90;;;;;;10532866;28;20271;-80
2021/12/03 07:48:46;;;;;;;23.13;12.47;;;0.60;99.90;;;;;;10558815;28;20220;-81
2021/12/03 07:54:08;;;;;;;11.33;7.27;;;0.70;99.90;;;;;;10519172;28;20208;-80
2021/12/03 07:59:31;;;;;;;14.83;7.87;;;0.70;99.90;;;;;;10528298;28;20199;-77
2021/12/03 08:04:53;;;;;;;8.27;4.20;;;0.70;99.90;;;;;;10523056;28;20251;-82
2021/12/03 08:10:16;;;;;;;7.73;3.37;;;0.70;99.90;;;;;;10526235;28;20219;-78
2021/12/03 08:15:38;;;;;;;7.03;4.23;;;0.80;99.90;;;;;;10543752;28;20515;-77
2021/12/03 08:21:03;;;;;;;4.80;2.73;;;0.80;99.90;;;;;;10543398;28;20204;-78
2021/12/03 08:26:24;;;;;;;4.03;2.77;;;0.90;99.90;;;;;;10558367;28;20634;-78
2021/12/03 08:31:47;;;;;;;4.57;3.40;;;0.90;99.90;;;;;;10523917;28;20228;-78
2021/12/03 08:37:10;;;;;;;3.27;1.93;;;1.00;99.90;;;;;;10526008;28;20242;-77
2021/12/03 08:42:32;;;;;;;3.67;1.93;;;1.10;99.90;;;;;;10525384;28;20209;-78
2021/12/03 08:47:59;;;;;;;3.77;2.50;;;1.10;99.90;;;;;;10517713;28;20437;-82
2021/12/03 08:59:03;;;;;;;8.87;3.70;;;1.60;99.90;;;;;;10542810;28;20207;-79
2021/12/03 09:04:25;;;;;;;5.10;2.97;;;1.80;99.90;;;;;;10537201;28;20242;-80
2021/12/03 09:09:47;;;;;;;2.63;1.97;;;1.70;99.90;;;;;;10558091;28;20231;-85
2021/12/03 09:15:13;;;;;;;6.13;3.70;;;1.80;99.90;;;;;;10516841;28;20234;-84
2021/12/03 09:26:12;;;;;;;3.10;2.40;;;1.90;99.90;;;;;;10554800;28;20210;-80
2021/12/03 09:31:37;;;;;;;6.07;3.20;;;1.90;99.90;;;;;;10523065;28;20340;-80
2021/12/03 09:36:59;;;;;;;13.80;7.03;;;2.00;99.90;;;;;;10521506;28;20283;-80
2021/12/03 09:42:22;;;;;;;6.60;4.77;;;2.10;99.90;;;;;;10537846;28;20244;-77
2021/12/03 09:47:46;;;;;;;6.57;5.03;;;2.10;99.90;;;;;;10540816;28;20202;-80
2021/12/03 10:15:40;;;;;;;7.27;5.23;;;2.40;99.90;;;;;;10523038;28;20210;-85
2021/12/03 10:21:13;;;;;;;4.23;3.60;;;2.40;99.90;;;;;;10525737;28;20440;-87
2021/12/03 10:49:35;;;;;;;3.37;3.00;;;2.30;99.90;;;;;;10528210;28;20396;-83
2021/12/03 12:20:31;;;;;;;3.37;2.00;;;2.40;99.90;;;;;;10471356;28;20419;-80
2021/12/03 14:09:37;;;;;;;5.00;3.13;;;2.10;99.90;;;;;;10315618;28;20221;-80
2021/12/03 14:43:44;;;;;;;10.00;5.47;;;2.00;99.90;;;;;;10506480;28;20216;-85
2021/12/03 14:55:01;;;;;;;9.10;6.33;;;2.00;99.90;;;;;;10386089;28;20233;-80
2021/12/03 15:33:52;;;;;;;18.97;9.90;;;1.80;99.90;;;;;;10488498;28;20227;-86
2021/12/03 15:39:36;;;;;;;15.63;7.97;;;1.80;99.90;;;;;;10527662;28;20234;-84
2021/12/03 15:56:56;;;;;;;10.13;7.60;;;1.90;99.90;;;;;;10525734;28;20202;-80
2021/12/03 16:08:11;;;;;;;17.90;10.37;;;1.90;99.90;;;;;;10544797;28;20233;-81
2021/12/03 16:19:17;;;;;;;17.60;8.77;;;1.90;99.90;;;;;;10547104;28;20197;-79
2021/12/03 16:24:59;;;;;;;15.57;9.03;;;1.90;99.90;;;;;;10531384;28;20194;-78
2021/12/03 16:53:04;;;;;;;22.10;10.30;;;1.90;99.90;;;;;;10544698;28;20229;-80
2021/12/03 16:58:28;;;;;;;28.13;15.93;;;1.80;99.90;;;;;;10529591;28;20243;-79
2021/12/03 17:04:08;;;;;;;24.87;13.67;;;1.80;99.90;;;;;;10533431;28;20554;-79
2021/12/03 17:49:01;;;;;;;32.43;12.80;;;1.70;99.90;;;;;;10546320;28;20194;-79
2021/12/03 17:54:31;;;;;;;20.83;11.17;;;1.80;99.90;;;;;;10545679;28;20217;-78
2021/12/03 17:59:54;;;;;;;25.17;12.37;;;1.80;99.90;;;;;;10561163;28;20203;-79
2021/12/03 18:55:38;;;;;;;19.57;10.80;;;1.70;99.90;;;;;;10560267;28;20230;-79
2021/12/03 19:01:00;;;;;;;19.07;9.90;;;1.70;99.90;;;;;;10550799;28;20202;-79
2021/12/03 19:06:25;;;;;;;19.73;10.00;;;1.70;99.90;;;;;;10549344;28;20212;-79
2021/12/03 19:11:57;;;;;;;18.90;9.33;;;1.70;99.90;;;;;;10548735;28;20249;-79
2021/12/03 19:17:19;;;;;;;21.33;10.10;;;1.60;99.90;;;;;;10537846;28;20523;-78
2021/12/03 19:22:41;;;;;;;13.30;7.30;;;1.50;99.90;;;;;;10532119;28;20205;-78
2021/12/03 19:28:03;;;;;;;14.80;7.87;;;1.60;99.90;;;;;;10549923;28;20195;-77
2021/12/03 19:33:25;;;;;;;12.63;7.83;;;1.60;99.90;;;;;;10548164;28;20516;-79
2021/12/03 19:38:48;;;;;;;11.97;6.67;;;1.60;99.90;;;;;;10551047;28;20226;-78
2021/12/03 19:44:16;;;;;;;12.67;7.47;;;1.60;99.90;;;;;;10550697;28;20221;-79
2021/12/03 19:50:05;;;;;;;23.27;12.00;;;1.70;99.90;;;;;;10516224;28;20202;-79
2021/12/03 19:55:28;;;;;;;23.10;11.53;;;1.50;99.90;;;;;;10518703;28;20228;-79
2021/12/03 20:00:50;;;;;;;26.63;12.53;;;1.50;99.90;;;;;;10547248;28;20202;-78
2021/12/03 20:06:14;;;;;;;23.23;12.97;;;1.50;99.90;;;;;;10549793;28;20514;-79
2021/12/03 20:11:40;;;;;;;19.27;9.80;;;1.50;99.90;;;;;;10532232;28;20214;-78
2021/12/03 20:17:09;;;;;;;17.67;9.60;;;1.50;99.90;;;;;;10518566;28;20234;-79
2021/12/03 20:28:04;;;;;;;15.27;8.50;;;1.40;99.90;;;;;;10521404;28;20202;-80
2021/12/03 20:39:04;;;;;;;17.43;8.77;;;1.40;99.90;;;;;;10544788;28;20481;-78
2021/12/03 21:12:39;;;;;;;32.03;15.27;;;1.20;99.90;;;;;;10547188;28;20237;-77
2021/12/03 21:23:41;;;;;;;22.23;11.30;;;1.20;99.90;;;;;;10543275;28;20193;-79
2021/12/03 21:29:21;;;;;;;16.53;10.17;;;1.20;99.90;;;;;;10540720;28;20213;-79
2021/12/03 21:46:26;;;;;;;19.77;9.67;;;1.20;99.90;;;;;;10543585;28;20273;-79
2021/12/03 21:51:48;;;;;;;15.50;9.17;;;1.10;99.90;;;;;;10542387;28;20237;-79
2021/12/03 21:57:10;;;;;;;21.53;11.20;;;1.00;99.90;;;;;;10542733;28;20197;-79
2021/12/03 22:02:32;;;;;;;18.40;9.73;;;1.00;99.90;;;;;;10546284;28;20201;-79
2021/12/03 22:07:54;;;;;;;21.47;11.03;;;1.00;99.90;;;;;;10560990;28;20265;-79
2021/12/03 22:13:23;;;;;;;21.87;10.97;;;1.00;99.90;;;;;;10542821;28;20222;-79
2021/12/03 22:18:46;;;;;;;17.87;9.83;;;1.00;99.90;;;;;;10560977;28;20194;-79
2021/12/03 22:24:08;;;;;;;19.30;10.73;;;1.00;99.90;;;;;;10539281;28;20533;-78
2021/12/03 22:29:30;;;;;;;24.73;12.60;;;1.00;99.90;;;;;;10560769;28;20288;-79
2021/12/03 22:34:52;;;;;;;20.47;11.73;;;1.00;99.90;;;;;;10536676;28;20248;-79
2021/12/03 22:40:14;;;;;;;20.80;11.97;;;0.90;99.90;;;;;;10511703;28;20561;-79
2021/12/03 22:56:35;;;;;;;15.73;9.90;;;0.80;99.90;;;;;;10523999;28;20434;-79
2021/12/03 23:01:57;;;;;;;19.17;10.93;;;0.70;99.90;;;;;;10509686;28;20248;-79
2021/12/03 23:07:19;;;;;;;21.63;11.47;;;0.70;99.90;;;;;;10525352;28;20285;-78
2021/12/03 23:12:41;;;;;;;20.73;10.73;;;0.60;99.90;;;;;;10509921;28;20256;-79
2021/12/03 23:18:04;;;;;;;21.13;10.77;;;0.60;99.90;;;;;;10523779;28;20500;-78
2021/12/03 23:23:27;;;;;;;24.10;12.90;;;0.50;99.90;;;;;;10488984;28;20212;-78
2021/12/03 23:28:49;;;;;;;18.27;10.90;;;0.50;99.90;;;;;;10509513;28;20497;-79
2021/12/03 23:34:14;;;;;;;26.13;13.07;;;0.50;99.90;;;;;;10522903;28;20470;-79
2021/12/03 23:39:36;;;;;;;19.90;9.93;;;0.60;99.90;;;;;;10550896;28;20250;-79
2021/12/03 23:44:58;;;;;;;18.87;10.67;;;0.60;99.90;;;;;;10565830;28;20197;-79
2021/12/03 23:50:20;;;;;;;24.67;12.87;;;0.50;99.90;;;;;;10519678;28;20196;-78
2021/12/03 23:55:42;;;;;;;26.07;14.47;;;0.40;99.90;;;;;;10546392;28;20519;-78
